sensor_id;sensor_type;location;lat;lon;timestamp;pressure;altitude;pressure_sealevel;temperature;humidity
14800;BME280;7491;57.750;11.970;2023-08-30T00:00:20;74616.78;;;-142.11;100.00
14800;BME280;7491;57.750;11.970;2023-08-30T00:02:47;74616.78;;;-142.11;100.00
14800;BME280;7491;57.750;11.970;2023-08-30T00:05:14;74629.00;;;-142.11;100.00
14800;BME280;7491;57.750;11.970;2023-08-30T00:07:41;74616.78;;;-142.11;100.00
14800;BME280;7491;57.750;11.970;2023-08-30T00:10:11;74622.91;;;-142.11;100.00
14800;BME280;7491;57.750;11.970;2023-08-30T00:12:38;74626.97;;;-142.11;100.00
14800;BME280;7491;57.750;11.970;2023-08-30T00:15:06;74641.25;;;-142.11;100.00
14800;BME280;7491;57.750;11.970;2023-08-30T00:17:33;74651.44;;;-142.11;100.00
14800;BME280;7491;57.750;11.970;2023-08-30T00:19:59;74645.31;;;-142.11;100.00
14800;BME280;7491;57.750;11.970;2023-08-30T00:22:26;74649.41;;;-142.11;100.00
14800;BME280;7491;57.750;11.970;2023-08-30T00:24:53;74655.50;;;-142.11;100.00
14800;BME280;7491;57.750;11.970;2023-08-30T00:27:21;74649.41;;;-142.11;100.00
14800;BME280;7491;57.750;11.970;2023-08-30T00:29:47;74639.22;;;-142.11;100.00
14800;BME280;7491;57.750;11.970;2023-08-30T00:32:16;74657.53;;;-142.11;100.00
14800;BME280;7491;57.750;11.970;2023-08-30T00:34:43;74663.66;;;-142.11;100.00
14800;BME280;7491;57.750;11.970;2023-08-30T00:37:11;74659.59;;;-142.11;100.00
14800;BME280;7491;57.750;11.970;2023-08-30T00:39:38;74647.34;;;-142.11;100.00
14800;BME280;7491;57.750;11.970;2023-08-30T00:42:05;74661.63;;;-142.11;100.00
14800;BME280;7491;57.750;11.970;2023-08-30T00:44:36;74667.72;;;-142.11;100.00
14800;BME280;7491;57.750;11.970;2023-08-30T00:47:03;74675.88;;;-142.11;100.00
14800;BME280;7491;57.750;11.970;2023-08-30T00:49:31;74675.88;;;-142.11;100.00
14800;BME280;7491;57.750;11.970;2023-08-30T00:51:58;74657.53;;;-142.11;100.00
14800;BME280;7491;57.750;11.970;2023-08-30T00:54:29;74649.41;;;-142.11;100.00
14800;BME280;7491;57.750;11.970;2023-08-30T00:56:56;74641.25;;;-142.11;100.00
14800;BME280;7491;57.750;11.970;2023-08-30T00:59:24;74637.16;;;-142.11;100.00
14800;BME280;7491;57.750;11.970;2023-08-30T01:02:01;74649.41;;;-142.11;100.00
14800;BME280;7491;57.750;11.970;2023-08-30T01:04:30;74633.09;;;-142.11;100.00
14800;BME280;7491;57.750;11.970;2023-08-30T01:06:57;74633.09;;;-142.11;100.00
14800;BME280;7491;57.750;11.970;2023-08-30T01:09:24;74631.06;;;-142.11;100.00
14800;BME280;7491;57.750;11.970;2023-08-30T01:11:56;74635.13;;;-142.11;100.00
14800;BME280;7491;57.750;11.970;2023-08-30T01:14:33;74645.31;;;-142.11;100.00
14800;BME280;7491;57.750;11.970;2023-08-30T01:17:06;74659.59;;;-142.11;100.00
14800;BME280;7491;57.750;11.970;2023-08-30T01:19:42;74677.91;;;-142.11;100.00
14800;BME280;7491;57.750;11.970;2023-08-30T01:22:19;74684.03;;;-142.11;100.00
14800;BME280;7491;57.750;11.970;2023-08-30T01:24:55;74714.59;;;-142.11;100.00
14800;BME280;7491;57.750;11.970;2023-08-30T01:27:26;74692.19;;;-142.11;100.00
14800;BME280;7491;57.750;11.970;2023-08-30T01:29:57;74673.84;;;-142.11;100.00
14800;BME280;7491;57.750;11.970;2023-08-30T01:32:28;74661.63;;;-142.11;100.00
14800;BME280;7491;57.750;11.970;2023-08-30T01:34:56;74651.44;;;-142.11;100.00
14800;BME280;7491;57.750;11.970;2023-08-30T01:37:23;74663.66;;;-142.11;100.00
14800;BME280;7491;57.750;11.970;2023-08-30T01:39:52;74649.41;;;-142.11;100.00
14800;BME280;7491;57.750;11.970;2023-08-30T01:42:19;74649.41;;;-142.11;100.00
14800;BME280;7491;57.750;11.970;2023-08-30T01:44:49;74629.00;;;-142.11;100.00
14800;BME280;7491;57.750;11.970;2023-08-30T01:47:17;74622.91;;;-142.11;100.00
14800;BME280;7491;57.750;11.970;2023-08-30T01:49:45;74624.94;;;-142.11;100.00
14800;BME280;7491;57.750;11.970;2023-08-30T01:52:13;74624.94;;;-142.11;100.00
14800;BME280;7491;57.750;11.970;2023-08-30T01:54:40;74626.97;;;-142.11;100.00
14800;BME280;7491;57.750;11.970;2023-08-30T01:57:07;74622.91;;;-142.11;100.00
14800;BME280;7491;57.750;11.970;2023-08-30T01:59:34;74616.78;;;-142.11;100.00
14800;BME280;7491;57.750;11.970;2023-08-30T02:02:03;74620.88;;;-142.11;100.00
14800;BME280;7491;57.750;11.970;2023-08-30T02:04:29;74631.06;;;-142.11;100.00
14800;BME280;7491;57.750;11.970;2023-08-30T02:07:00;74647.34;;;-142.11;100.00
14800;BME280;7491;57.750;11.970;2023-08-30T02:09:35;74649.41;;;-142.11;100.00
14800;BME280;7491;57.750;11.970;2023-08-30T02:12:11;74635.13;;;-142.11;100.00
14800;BME280;7491;57.750;11.970;2023-08-30T02:14:41;74637.16;;;-142.11;100.00
14800;BME280;7491;57.750;11.970;2023-08-30T02:17:13;74620.88;;;-142.11;100.00
14800;BME280;7491;57.750;11.970;2023-08-30T02:19:41;74645.31;;;-142.11;100.00
14800;BME280;7491;57.750;11.970;2023-08-30T02:22:07;74622.91;;;-142.11;100.00
14800;BME280;7491;57.750;11.970;2023-08-30T02:24:34;74622.91;;;-142.11;100.00
14800;BME280;7491;57.750;11.970;2023-08-30T02:27:01;74622.91;;;-142.11;100.00
14800;BME280;7491;57.750;11.970;2023-08-30T02:29:28;74622.91;;;-142.11;100.00
14800;BME280;7491;57.750;11.970;2023-08-30T02:31:54;74622.91;;;-142.11;100.00
14800;BME280;7491;57.750;11.970;2023-08-30T02:34:22;74637.16;;;-142.11;100.00
14800;BME280;7491;57.750;11.970;2023-08-30T02:36:49;74614.75;;;-142.11;100.00
14800;BME280;7491;57.750;11.970;2023-08-30T02:39:16;74618.84;;;-142.11;100.00
14800;BME280;7491;57.750;11.970;2023-08-30T02:41:43;74624.94;;;-142.11;100.00
14800;BME280;7491;57.750;11.970;2023-08-30T02:44:11;74614.75;;;-142.11;100.00
14800;BME280;7491;57.750;11.970;2023-08-30T02:46:38;74620.88;;;-142.11;100.00
14800;BME280;7491;57.750;11.970;2023-08-30T02:49:05;74618.84;;;-142.11;100.00
14800;BME280;7491;57.750;11.970;2023-08-30T02:51:33;74612.72;;;-142.11;100.00
14800;BME280;7491;57.750;11.970;2023-08-30T02:54:01;74618.84;;;-142.11;100.00
14800;BME280;7491;57.750;11.970;2023-08-30T02:56:29;74622.91;;;-142.11;100.00
14800;BME280;7491;57.750;11.970;2023-08-30T02:58:56;74624.94;;;-142.11;100.00
14800;BME280;7491;57.750;11.970;2023-08-30T03:01:22;74614.75;;;-142.11;100.00
14800;BME280;7491;57.750;11.970;2023-08-30T03:03:49;74608.63;;;-142.11;100.00
14800;BME280;7491;57.750;11.970;2023-08-30T03:06:16;74614.75;;;-142.11;100.00
14800;BME280;7491;57.750;11.970;2023-08-30T03:08:44;74622.91;;;-142.11;100.00
14800;BME280;7491;57.750;11.970;2023-08-30T03:11:11;74626.97;;;-142.11;100.00
14800;BME280;7491;57.750;11.970;2023-08-30T03:13:39;74622.91;;;-142.11;100.00
14800;BME280;7491;57.750;11.970;2023-08-30T03:16:10;74616.78;;;-142.11;100.00
14800;BME280;7491;57.750;11.970;2023-08-30T03:18:38;74631.06;;;-142.11;100.00
14800;BME280;7491;57.750;11.970;2023-08-30T03:21:04;74637.16;;;-142.11;100.00
14800;BME280;7491;57.750;11.970;2023-08-30T03:23:31;74641.25;;;-142.11;100.00
14800;BME280;7491;57.750;11.970;2023-08-30T03:26:00;74637.16;;;-142.11;100.00
14800;BME280;7491;57.750;11.970;2023-08-30T03:28:26;74639.22;;;-142.11;100.00
14800;BME280;7491;57.750;11.970;2023-08-30T03:30:53;74639.22;;;-142.11;100.00
14800;BME280;7491;57.750;11.970;2023-08-30T03:33:20;74653.47;;;-142.11;100.00
14800;BME280;7491;57.750;11.970;2023-08-30T03:35:46;74639.22;;;-142.11;100.00
14800;BME280;7491;57.750;11.970;2023-08-30T03:38:13;74649.41;;;-142.11;100.00
14800;BME280;7491;57.750;11.970;2023-08-30T03:40:40;74643.28;;;-142.11;100.00
14800;BME280;7491;57.750;11.970;2023-08-30T03:43:08;74641.25;;;-142.11;100.00
14800;BME280;7491;57.750;11.970;2023-08-30T03:45:35;74637.16;;;-142.11;100.00
14800;BME280;7491;57.750;11.970;2023-08-30T03:48:03;74641.25;;;-142.11;100.00
14800;BME280;7491;57.750;11.970;2023-08-30T03:50:30;74639.22;;;-142.11;100.00
14800;BME280;7491;57.750;11.970;2023-08-30T03:52:56;74645.31;;;-142.11;100.00
14800;BME280;7491;57.750;11.970;2023-08-30T03:55:23;74639.22;;;-142.11;100.00
14800;BME280;7491;57.750;11.970;2023-08-30T03:57:50;74655.50;;;-142.11;100.00
14800;BME280;7491;57.750;11.970;2023-08-30T04:00:18;74655.50;;;-142.11;100.00
14800;BME280;7491;57.750;11.970;2023-08-30T04:02:44;74657.53;;;-142.11;100.00
14800;BME280;7491;57.750;11.970;2023-08-30T04:05:11;74659.59;;;-142.11;100.00
14800;BME280;7491;57.750;11.970;2023-08-30T04:07:38;74659.59;;;-142.11;100.00
14800;BME280;7491;57.750;11.970;2023-08-30T04:10:05;74651.44;;;-142.11;100.00
14800;BME280;7491;57.750;11.970;2023-08-30T04:12:32;74651.44;;;-142.11;100.00
14800;BME280;7491;57.750;11.970;2023-08-30T04:15:00;74671.81;;;-142.11;100.00
14800;BME280;7491;57.750;11.970;2023-08-30T04:17:28;74671.81;;;-142.11;100.00
14800;BME280;7491;57.750;11.970;2023-08-30T04:19:55;74659.59;;;-142.11;100.00
14800;BME280;7491;57.750;11.970;2023-08-30T04:22:22;74647.34;;;-142.11;100.00
14800;BME280;7491;57.750;11.970;2023-08-30T04:24:49;74641.25;;;-142.11;100.00
14800;BME280;7491;57.750;11.970;2023-08-30T04:27:16;74647.34;;;-142.11;100.00
14800;BME280;7491;57.750;11.970;2023-08-30T04:29:42;74639.22;;;-142.11;100.00
14800;BME280;7491;57.750;11.970;2023-08-30T04:32:37;74641.25;;;-142.11;100.00
14800;BME280;7491;57.750;11.970;2023-08-30T04:35:05;74635.13;;;-142.11;100.00
14800;BME280;7491;57.750;11.970;2023-08-30T04:37:32;74637.16;;;-142.11;100.00
14800;BME280;7491;57.750;11.970;2023-08-30T04:39:58;74637.16;;;-142.11;100.00
14800;BME280;7491;57.750;11.970;2023-08-30T04:42:25;74653.47;;;-142.11;100.00
14800;BME280;7491;57.750;11.970;2023-08-30T04:44:52;74641.25;;;-142.11;100.00
14800;BME280;7491;57.750;11.970;2023-08-30T04:47:20;74637.16;;;-142.11;100.00
14800;BME280;7491;57.750;11.970;2023-08-30T04:49:51;74635.13;;;-142.11;100.00
14800;BME280;7491;57.750;11.970;2023-08-30T04:52:18;74635.13;;;-142.11;100.00
14800;BME280;7491;57.750;11.970;2023-08-30T04:54:44;74643.28;;;-142.11;100.00
14800;BME280;7491;57.750;11.970;2023-08-30T04:57:11;74671.81;;;-142.11;100.00
14800;BME280;7491;57.750;11.970;2023-08-30T04:59:39;74661.63;;;-142.11;100.00
14800;BME280;7491;57.750;11.970;2023-08-30T05:02:06;74671.81;;;-142.11;100.00
14800;BME280;7491;57.750;11.970;2023-08-30T05:04:33;74641.25;;;-142.11;100.00
14800;BME280;7491;57.750;11.970;2023-08-30T05:07:01;74620.88;;;-142.11;100.00
14800;BME280;7491;57.750;11.970;2023-08-30T05:09:29;74629.00;;;-142.11;100.00
14800;BME280;7491;57.750;11.970;2023-08-30T05:11:57;74620.88;;;-142.11;100.00
14800;BME280;7491;57.750;11.970;2023-08-30T05:14:24;74610.69;;;-142.11;100.00
14800;BME280;7491;57.750;11.970;2023-08-30T05:16:51;74608.63;;;-142.11;100.00
14800;BME280;7491;57.750;11.970;2023-08-30T05:19:18;74614.75;;;-142.11;100.00
14800;BME280;7491;57.750;11.970;2023-08-30T05:21:45;74616.78;;;-142.11;100.00
14800;BME280;7491;57.750;11.970;2023-08-30T05:24:14;74610.69;;;-142.11;100.00
14800;BME280;7491;57.750;11.970;2023-08-30T05:26:40;74610.69;;;-142.11;100.00
14800;BME280;7491;57.750;11.970;2023-08-30T05:29:07;74616.78;;;-142.11;100.00
14800;BME280;7491;57.750;11.970;2023-08-30T05:31:34;74598.44;;;-142.11;100.00
14800;BME280;7491;57.750;11.970;2023-08-30T05:34:00;74590.31;;;-142.11;100.00
14800;BME280;7491;57.750;11.970;2023-08-30T05:36:28;74588.25;;;-142.11;100.00
14800;BME280;7491;57.750;11.970;2023-08-30T05:38:54;74602.53;;;-142.11;100.00
14800;BME280;7491;57.750;11.970;2023-08-30T05:41:23;74596.41;;;-142.11;100.00
14800;BME280;7491;57.750;11.970;2023-08-30T05:43:50;74569.94;;;-142.11;100.00
14800;BME280;7491;57.750;11.970;2023-08-30T05:46:17;74586.22;;;-142.11;100.00
14800;BME280;7491;57.750;11.970;2023-08-30T05:48:44;74578.06;;;-142.11;100.00
14800;BME280;7491;57.750;11.970;2023-08-30T05:51:11;74582.16;;;-142.11;100.00
14800;BME280;7491;57.750;11.970;2023-08-30T05:53:37;74576.03;;;-142.11;100.00
14800;BME280;7491;57.750;11.970;2023-08-30T05:56:04;74580.13;;;-142.11;100.00
14800;BME280;7491;57.750;11.970;2023-08-30T05:58:32;74590.31;;;-142.11;100.00
14800;BME280;7491;57.750;11.970;2023-08-30T06:00:59;74586.22;;;-142.11;100.00
14800;BME280;7491;57.750;11.970;2023-08-30T06:03:26;74590.31;;;-142.11;100.00
14800;BME280;7491;57.750;11.970;2023-08-30T06:05:53;74600.50;;;-142.11;100.00
14800;BME280;7491;57.750;11.970;2023-08-30T06:08:20;74594.38;;;-142.11;100.00
14800;BME280;7491;57.750;11.970;2023-08-30T06:10:47;74586.22;;;-142.11;100.00
14800;BME280;7491;57.750;11.970;2023-08-30T06:13:14;74586.22;;;-142.11;100.00
14800;BME280;7491;57.750;11.970;2023-08-30T06:15:42;74586.22;;;-142.11;100.00
14800;BME280;7491;57.750;11.970;2023-08-30T06:18:10;74578.06;;;-142.11;100.00
14800;BME280;7491;57.750;11.970;2023-08-30T06:20:40;74559.75;;;-142.11;100.00
14800;BME280;7491;57.750;11.970;2023-08-30T06:23:07;74557.69;;;-142.11;100.00
14800;BME280;7491;57.750;11.970;2023-08-30T06:25:33;74551.59;;;-142.11;100.00
14800;BME280;7491;57.750;11.970;2023-08-30T06:28:01;74535.28;;;-142.11;100.00
14800;BME280;7491;57.750;11.970;2023-08-30T06:30:28;74539.38;;;-142.11;100.00
14800;BME280;7491;57.750;11.970;2023-08-30T06:32:57;74525.09;;;-142.11;100.00
14800;BME280;7491;57.750;11.970;2023-08-30T06:35:24;74506.75;;;-142.11;100.00
14800;BME280;7491;57.750;11.970;2023-08-30T06:37:51;74488.44;;;-142.11;100.00
14800;BME280;7491;57.750;11.970;2023-08-30T06:40:18;74459.91;;;-142.11;100.00
14800;BME280;7491;57.750;11.970;2023-08-30T06:42:45;74453.78;;;-142.11;100.00
14800;BME280;7491;57.750;11.970;2023-08-30T06:45:11;74443.59;;;-142.11;100.00
14800;BME280;7491;57.750;11.970;2023-08-30T06:47:38;74439.53;;;-142.11;100.00
14800;BME280;7491;57.750;11.970;2023-08-30T06:50:07;74406.94;;;-142.11;100.00
14800;BME280;7491;57.750;11.970;2023-08-30T06:52:34;74388.59;;;-142.11;100.00
14800;BME280;7491;57.750;11.970;2023-08-30T06:55:02;74388.59;;;-142.11;100.00
14800;BME280;7491;57.750;11.970;2023-08-30T06:57:28;74370.25;;;-142.11;100.00
14800;BME280;7491;57.750;11.970;2023-08-30T06:59:55;74368.22;;;-142.11;100.00
14800;BME280;7491;57.750;11.970;2023-08-30T07:02:22;74378.41;;;-142.11;100.00
14800;BME280;7491;57.750;11.970;2023-08-30T07:04:49;74413.03;;;-142.11;100.00
14800;BME280;7491;57.750;11.970;2023-08-30T07:07:17;74408.97;;;-142.11;100.00
14800;BME280;7491;57.750;11.970;2023-08-30T07:09:44;74388.59;;;-142.11;100.00
14800;BME280;7491;57.750;11.970;2023-08-30T07:12:11;74382.47;;;-142.11;100.00
14800;BME280;7491;57.750;11.970;2023-08-30T07:14:38;74362.09;;;-142.11;100.00
14800;BME280;7491;57.750;11.970;2023-08-30T07:17:04;74325.44;;;-142.11;100.00
14800;BME280;7491;57.750;11.970;2023-08-30T07:19:32;74298.94;;;-142.11;100.00
14800;BME280;7491;57.750;11.970;2023-08-30T07:21:59;74270.41;;;-142.11;100.00
14800;BME280;7491;57.750;11.970;2023-08-30T07:24:27;74252.09;;;-142.11;100.00
14800;BME280;7491;57.750;11.970;2023-08-30T07:26:54;74227.63;;;-142.11;100.00
14800;BME280;7491;57.750;11.970;2023-08-30T07:29:21;74231.72;;;-142.11;100.00
14800;BME280;7491;57.750;11.970;2023-08-30T07:31:48;74223.56;;;-142.11;100.00
14800;BME280;7491;57.750;11.970;2023-08-30T07:34:16;74211.34;;;-142.11;100.00
14800;BME280;7491;57.750;11.970;2023-08-30T07:36:43;74195.03;;;-142.11;100.00
14800;BME280;7491;57.750;11.970;2023-08-30T07:39:10;74186.88;;;-142.11;100.00
14800;BME280;7491;57.750;11.970;2023-08-30T07:41:38;74170.59;;;-142.11;100.00
14800;BME280;7491;57.750;11.970;2023-08-30T07:44:05;74193.00;;;-142.11;100.00
14800;BME280;7491;57.750;11.970;2023-08-30T07:46:31;74168.56;;;-142.11;100.00
14800;BME280;7491;57.750;11.970;2023-08-30T07:48:58;74162.44;;;-142.11;100.00
14800;BME280;7491;57.750;11.970;2023-08-30T07:51:25;74146.16;;;-142.11;100.00
14800;BME280;7491;57.750;11.970;2023-08-30T07:53:51;74152.25;;;-142.11;100.00
14800;BME280;7491;57.750;11.970;2023-08-30T07:56:18;74152.25;;;-142.11;100.00
14800;BME280;7491;57.750;11.970;2023-08-30T07:58:46;74129.84;;;-142.11;100.00
14800;BME280;7491;57.750;11.970;2023-08-30T08:01:13;74129.84;;;-142.11;100.00
14800;BME280;7491;57.750;11.970;2023-08-30T08:03:40;74138.00;;;-142.11;100.00
14800;BME280;7491;57.750;11.970;2023-08-30T08:06:07;74146.16;;;-142.11;100.00
14800;BME280;7491;57.750;11.970;2023-08-30T08:08:33;74111.50;;;-142.11;100.00
14800;BME280;7491;57.750;11.970;2023-08-30T08:11:00;74117.63;;;-142.11;100.00
14800;BME280;7491;57.750;11.970;2023-08-30T08:13:28;74117.63;;;-142.11;100.00
14800;BME280;7491;57.750;11.970;2023-08-30T08:15:57;74123.72;;;-142.11;100.00
14800;BME280;7491;57.750;11.970;2023-08-30T08:18:24;74107.44;;;-142.11;100.00
14800;BME280;7491;57.750;11.970;2023-08-30T08:20:50;74093.16;;;-142.11;100.00
14800;BME280;7491;57.750;11.970;2023-08-30T08:23:17;74101.31;;;-142.11;100.00
14800;BME280;7491;57.750;11.970;2023-08-30T08:25:44;74093.16;;;-142.11;100.00
14800;BME280;7491;57.750;11.970;2023-08-30T08:28:11;74121.69;;;-142.11;100.00
14800;BME280;7491;57.750;11.970;2023-08-30T08:30:38;74119.66;;;-142.11;100.00
14800;BME280;7491;57.750;11.970;2023-08-30T08:33:06;74093.16;;;-142.11;100.00
14800;BME280;7491;57.750;11.970;2023-08-30T08:35:33;74095.22;;;-142.11;100.00
14800;BME280;7491;57.750;11.970;2023-08-30T08:38:00;74093.16;;;-142.11;100.00
14800;BME280;7491;57.750;11.970;2023-08-30T08:40:27;74074.84;;;-142.11;100.00
14800;BME280;7491;57.750;11.970;2023-08-30T08:42:56;74076.88;;;-142.11;100.00
14800;BME280;7491;57.750;11.970;2023-08-30T08:45:24;74054.47;;;-142.11;100.00
14800;BME280;7491;57.750;11.970;2023-08-30T08:47:51;74042.25;;;-142.11;100.00
14800;BME280;7491;57.750;11.970;2023-08-30T08:50:20;74038.16;;;-142.11;100.00
14800;BME280;7491;57.750;11.970;2023-08-30T08:52:47;74036.13;;;-142.11;100.00
14800;BME280;7491;57.750;11.970;2023-08-30T08:55:14;74023.91;;;-142.11;100.00
14800;BME280;7491;57.750;11.970;2023-08-30T08:57:42;74011.69;;;-142.11;100.00
14800;BME280;7491;57.750;11.970;2023-08-30T09:00:10;74019.84;;;-142.11;100.00
14800;BME280;7491;57.750;11.970;2023-08-30T09:02:38;73991.31;;;-142.11;100.00
14800;BME280;7491;57.750;11.970;2023-08-30T09:05:07;73983.16;;;-142.11;100.00
14800;BME280;7491;57.750;11.970;2023-08-30T09:07:35;73964.81;;;-142.11;100.00
14800;BME280;7491;57.750;11.970;2023-08-30T09:10:02;73972.97;;;-142.11;100.00
14800;BME280;7491;57.750;11.970;2023-08-30T09:12:32;73985.19;;;-142.11;100.00
14800;BME280;7491;57.750;11.970;2023-08-30T09:14:58;74007.59;;;-142.11;100.00
14800;BME280;7491;57.750;11.970;2023-08-30T09:17:35;74011.69;;;-142.11;100.00
14800;BME280;7491;57.750;11.970;2023-08-30T09:20:09;74054.47;;;-142.11;100.00
14800;BME280;7491;57.750;11.970;2023-08-30T09:22:38;74064.66;;;-142.11;100.00
14800;BME280;7491;57.750;11.970;2023-08-30T09:25:06;74113.53;;;-142.11;100.00
14800;BME280;7491;57.750;11.970;2023-08-30T09:27:35;74142.06;;;-142.11;100.00
14800;BME280;7491;57.750;11.970;2023-08-30T09:30:04;74166.50;;;-142.11;100.00
14800;BME280;7491;57.750;11.970;2023-08-30T09:32:38;74138.00;;;-142.11;100.00
14800;BME280;7491;57.750;11.970;2023-08-30T09:35:06;74166.50;;;-142.11;100.00
14800;BME280;7491;57.750;11.970;2023-08-30T09:37:33;74152.25;;;-142.11;100.00
14800;BME280;7491;57.750;11.970;2023-08-30T09:40:01;74135.97;;;-142.11;100.00
14800;BME280;7491;57.750;11.970;2023-08-30T09:42:28;74133.91;;;-142.11;100.00
14800;BME280;7491;57.750;11.970;2023-08-30T09:44:56;74138.00;;;-142.11;100.00
14800;BME280;7491;57.750;11.970;2023-08-30T09:47:24;74127.81;;;-142.11;100.00
14800;BME280;7491;57.750;11.970;2023-08-30T09:49:54;74109.47;;;-142.11;100.00
14800;BME280;7491;57.750;11.970;2023-08-30T09:52:23;74091.13;;;-142.11;100.00
14800;BME280;7491;57.750;11.970;2023-08-30T09:54:51;74097.25;;;-142.11;100.00
14800;BME280;7491;57.750;11.970;2023-08-30T09:57:20;74060.56;;;-142.11;100.00
14800;BME280;7491;57.750;11.970;2023-08-30T09:59:48;74044.28;;;-142.11;100.00
14800;BME280;7491;57.750;11.970;2023-08-30T10:02:18;74027.97;;;-142.11;100.00
14800;BME280;7491;57.750;11.970;2023-08-30T10:04:46;74027.97;;;-142.11;100.00
14800;BME280;7491;57.750;11.970;2023-08-30T10:07:20;74032.06;;;-142.11;100.00
14800;BME280;7491;57.750;11.970;2023-08-30T10:09:50;74032.06;;;-142.11;100.00
14800;BME280;7491;57.750;11.970;2023-08-30T10:12:20;74027.97;;;-142.11;100.00
14800;BME280;7491;57.750;11.970;2023-08-30T10:14:48;74046.31;;;-142.11;100.00
14800;BME280;7491;57.750;11.970;2023-08-30T10:17:18;74025.94;;;-142.11;100.00
14800;BME280;7491;57.750;11.970;2023-08-30T10:19:45;74013.72;;;-142.11;100.00
14800;BME280;7491;57.750;11.970;2023-08-30T10:22:14;73989.28;;;-142.11;100.00
14800;BME280;7491;57.750;11.970;2023-08-30T10:24:45;73997.41;;;-142.11;100.00
14800;BME280;7491;57.750;11.970;2023-08-30T10:27:15;74009.66;;;-142.11;100.00
14800;BME280;7491;57.750;11.970;2023-08-30T10:29:49;74017.78;;;-142.11;100.00
14800;BME280;7491;57.750;11.970;2023-08-30T10:32:19;74003.53;;;-142.11;100.00
14800;BME280;7491;57.750;11.970;2023-08-30T10:34:48;73999.47;;;-142.11;100.00
14800;BME280;7491;57.750;11.970;2023-08-30T10:37:16;73989.28;;;-142.11;100.00
14800;BME280;7491;57.750;11.970;2023-08-30T10:39:43;73958.72;;;-142.11;100.00
14800;BME280;7491;57.750;11.970;2023-08-30T10:42:16;73944.47;;;-142.11;100.00
14800;BME280;7491;57.750;11.970;2023-08-30T10:44:48;73934.28;;;-142.11;100.00
14800;BME280;7491;57.750;11.970;2023-08-30T10:47:18;73909.81;;;-142.11;100.00
14800;BME280;7491;57.750;11.970;2023-08-30T10:49:47;73924.09;;;-142.11;100.00
14800;BME280;7491;57.750;11.970;2023-08-30T10:52:14;73942.41;;;-142.11;100.00
14800;BME280;7491;57.750;11.970;2023-08-30T10:54:40;73930.19;;;-142.11;100.00
14800;BME280;7491;57.750;11.970;2023-08-30T10:57:12;73926.13;;;-142.11;100.00
14800;BME280;7491;57.750;11.970;2023-08-30T10:59:40;73940.38;;;-142.11;100.00
14800;BME280;7491;57.750;11.970;2023-08-30T11:02:08;73932.22;;;-142.11;100.00
14800;BME280;7491;57.750;11.970;2023-08-30T11:04:39;73913.91;;;-142.11;100.00
14800;BME280;7491;57.750;11.970;2023-08-30T11:07:06;73913.91;;;-142.11;100.00
14800;BME280;7491;57.750;11.970;2023-08-30T11:09:33;73897.59;;;-142.11;100.00
14800;BME280;7491;57.750;11.970;2023-08-30T11:12:05;73885.38;;;-142.11;100.00
14800;BME280;7491;57.750;11.970;2023-08-30T11:14:32;73854.81;;;-142.11;100.00
14800;BME280;7491;57.750;11.970;2023-08-30T11:16:58;73848.72;;;-142.11;100.00
14800;BME280;7491;57.750;11.970;2023-08-30T11:19:29;73844.63;;;-142.11;100.00
14800;BME280;7491;57.750;11.970;2023-08-30T11:21:56;73871.13;;;-142.11;100.00
14800;BME280;7491;57.750;11.970;2023-08-30T11:24:23;73885.38;;;-142.11;100.00
14800;BME280;7491;57.750;11.970;2023-08-30T11:26:53;73909.81;;;-142.11;100.00
14800;BME280;7491;57.750;11.970;2023-08-30T11:29:19;73907.78;;;-142.11;100.00
14800;BME280;7491;57.750;11.970;2023-08-30T11:31:46;73913.91;;;-142.11;100.00
14800;BME280;7491;57.750;11.970;2023-08-30T11:34:13;73917.97;;;-142.11;100.00
14800;BME280;7491;57.750;11.970;2023-08-30T11:36:41;73907.78;;;-142.11;100.00
14800;BME280;7491;57.750;11.970;2023-08-30T11:39:09;73920.00;;;-142.11;100.00
14800;BME280;7491;57.750;11.970;2023-08-30T11:41:37;73940.38;;;-142.11;100.00
14800;BME280;7491;57.750;11.970;2023-08-30T11:44:05;73956.69;;;-142.11;100.00
14800;BME280;7491;57.750;11.970;2023-08-30T11:46:31;73962.78;;;-142.11;100.00
14800;BME280;7491;57.750;11.970;2023-08-30T11:48:58;73962.78;;;-142.11;100.00
14800;BME280;7491;57.750;11.970;2023-08-30T11:51:26;73960.75;;;-142.11;100.00
14800;BME280;7491;57.750;11.970;2023-08-30T11:53:54;73958.72;;;-142.11;100.00
14800;BME280;7491;57.750;11.970;2023-08-30T11:56:22;73926.13;;;-142.11;100.00
14800;BME280;7491;57.750;11.970;2023-08-30T11:58:49;73901.69;;;-142.11;100.00
14800;BME280;7491;57.750;11.970;2023-08-30T12:01:18;73897.59;;;-142.11;100.00
14800;BME280;7491;57.750;11.970;2023-08-30T12:03:45;73844.63;;;-142.11;100.00
14800;BME280;7491;57.750;11.970;2023-08-30T12:06:15;73822.22;;;-142.11;100.00
14800;BME280;7491;57.750;11.970;2023-08-30T12:08:42;73818.16;;;-142.11;100.00
14800;BME280;7491;57.750;11.970;2023-08-30T12:11:19;73842.59;;;-142.11;100.00
14800;BME280;7491;57.750;11.970;2023-08-30T12:13:46;73814.06;;;-142.11;100.00
14800;BME280;7491;57.750;11.970;2023-08-30T12:16:16;73805.94;;;-142.11;100.00
14800;BME280;7491;57.750;11.970;2023-08-30T12:18:43;73834.44;;;-142.11;100.00
14800;BME280;7491;57.750;11.970;2023-08-30T12:21:10;73828.34;;;-142.11;100.00
14800;BME280;7491;57.750;11.970;2023-08-30T12:23:36;73820.19;;;-142.11;100.00
14800;BME280;7491;57.750;11.970;2023-08-30T12:26:17;73791.66;;;-142.11;100.00
14800;BME280;7491;57.750;11.970;2023-08-30T12:28:54;73775.38;;;-142.11;100.00
14800;BME280;7491;57.750;11.970;2023-08-30T12:31:52;73797.78;;;-142.11;100.00
14800;BME280;7491;57.750;11.970;2023-08-30T12:34:22;73795.75;;;-142.11;100.00